Wednesday, April 25, 2018, 1:02 AM GMT
Back to Local

CWQH, Lennoxville

Location: , , Canada Lat: 45.367
Local Time: 1:02 AM GMT ( 1:02 GMT) Lon: -71.817
Time Zone: GMT Elev: 593 ft

Show me the last for .
Show Coded

Time T Td Feel RH Dir Speed Gust Alt SLP Vis Weather Sky Remarks
2018-04-25 00:00 63 25 - 23 190° 3 - - - 0 None
2018-04-24 23:00 66 26 - 21 200° 7 - - - 0 None
2018-04-24 22:00 69 24 - 18 220° 9 - - - 0 None
2018-04-24 21:00 71 29 - 21 170° 8 - - - 0 Peak wind: 19 mph (17 kts) from 210° at 19 min
2018-04-24 20:00 71 30 - 22 180° 12 20 - - 0 Peak wind: 21 mph (19 kts) from 190° at 15 min
2018-04-24 19:00 71 31 - 23 210° 9 18 - - 0 Peak wind: 21 mph (19 kts) from 200° at 31 min
2018-04-24 18:00 69 34 - 27 230° 8 - - - 0 None
2018-04-24 17:00 68 37 - 31 210° 8 - - - 0 None
2018-04-24 16:00 67 33 - 28 220° 10 - - - 0 None
2018-04-24 15:00 64 30 - 27 220° 10 - - - 0 None
2018-04-24 14:00 60 31 - 33 220° 7 - - - 0 None
2018-04-24 13:00 53 33 - 45 200° 2 - - - 0 None
2018-04-24 12:00 43 33 - 68 90° 1 - - - 0 None
2018-04-24 11:00 34 28 31 78 50° 3 - - - 0 None
2018-04-24 10:00 30 26 - 81 - Calm - - - 0 None
2018-04-24 09:00 31 26 24 82 70° 7 - - - 0 None
2018-04-24 08:00 31 27 26 85 50° 6 - - - 0 None
2018-04-24 07:00 30 26 - 83 - Calm - - - 0 None
2018-04-24 06:00 32 26 25 78 70° 7 - - - 0 None
2018-04-24 05:00 34 26 31 72 40° 3 - - - 0 None
2018-04-24 04:00 36 26 33 68 60° 3 - - - 0 None
2018-04-24 03:00 38 26 - 60 160° 1 - - - 0 None
2018-04-24 02:00 41 30 - 63 220° 1 - - - 0 None

Support USWX by starting your Amazon purchase here.